createdAt,value
2022-09-10T00:00:43.594Z,80.53
2022-09-10T00:05:46.445Z,79.95
2022-09-10T00:10:52.062Z,80.50
2022-09-10T00:15:54.858Z,80.18
2022-09-10T00:20:58.804Z,80.76
2022-09-10T00:26:00.458Z,81.08
2022-09-10T00:31:03.477Z,80.97
2022-09-10T00:36:14.179Z,81.02
2022-09-10T00:41:17.949Z,80.78
2022-09-10T00:46:31.640Z,80.72
2022-09-10T00:51:35.765Z,80.43
2022-09-10T00:56:37.877Z,80.26
2022-09-10T01:01:40.535Z,80.21
2022-09-10T01:06:45.752Z,80.70
2022-09-10T01:12:13.067Z,80.81
2022-09-10T01:17:37.437Z,81.17
2022-09-10T01:23:06.475Z,82.21
2022-09-10T01:28:33.642Z,82.63
2022-09-10T01:33:43.103Z,82.93
2022-09-10T01:38:50.119Z,83.88
2022-09-10T01:43:52.120Z,83.27
2022-09-10T01:49:14.938Z,84.16
2022-09-10T01:54:37.160Z,84.42
2022-09-10T01:59:50.923Z,83.33
2022-09-10T02:04:54.684Z,85.23
2022-09-10T02:09:57.459Z,84.19
2022-09-10T02:15:01.399Z,86.79
2022-09-10T02:20:22.138Z,88.08
2022-09-10T02:25:33.342Z,90.95
2022-09-10T02:30:37.292Z,93.74
2022-09-10T02:35:39.149Z,94.87
2022-09-10T02:40:40.789Z,96.62
2022-09-10T02:45:43.913Z,98.51
2022-09-10T02:50:46.279Z,98.36
2022-09-10T02:55:48.893Z,98.42
2022-09-10T03:00:50.856Z,99.56
2022-09-10T03:05:52.682Z,100.00
2022-09-10T03:10:55.903Z,100.00
2022-09-10T03:15:58.918Z,100.00
2022-09-10T03:21:09.890Z,100.00
2022-09-10T03:26:14.454Z,100.00
2022-09-10T03:31:18.241Z,100.00
2022-09-10T03:36:22.960Z,100.00
2022-09-10T03:41:28.333Z,100.00
2022-09-10T03:46:33.316Z,100.00
2022-09-10T03:51:37.033Z,100.00
2022-09-10T03:56:39.881Z,100.00
2022-09-10T04:01:43.750Z,100.00
2022-09-10T04:06:45.541Z,100.00
2022-09-10T04:11:49.779Z,100.00
2022-09-10T04:16:52.422Z,100.00
2022-09-10T04:21:54.616Z,100.00
2022-09-10T04:26:57.823Z,100.00
2022-09-10T04:31:59.728Z,100.00
2022-09-10T04:37:06.177Z,100.00
2022-09-10T04:42:09.879Z,100.00
2022-09-10T04:47:12.396Z,100.00
2022-09-10T04:52:17.198Z,100.00
2022-09-10T04:57:19.679Z,100.00
2022-09-10T05:02:21.864Z,100.00
2022-09-10T05:07:24.142Z,100.00
2022-09-10T05:12:26.443Z,100.00
2022-09-10T05:17:28.155Z,100.00
2022-09-10T05:22:37.246Z,100.00
2022-09-10T05:27:42.003Z,100.00
2022-09-10T05:32:47.544Z,100.00
2022-09-10T05:37:50.772Z,100.00
2022-09-10T05:42:54.038Z,100.00
2022-09-10T05:47:57.271Z,100.00
2022-09-10T05:52:59.113Z,100.00
2022-09-10T05:58:03.066Z,100.00
2022-09-10T06:03:06.034Z,85.00
2022-09-10T06:08:24.149Z,81.48
2022-09-10T06:13:28.162Z,83.01
2022-09-10T06:18:32.031Z,86.68
2022-09-10T06:23:36.274Z,84.96
2022-09-10T06:28:38.469Z,84.95
2022-09-10T06:33:41.433Z,84.05
2022-09-10T06:38:45.188Z,84.67
2022-09-10T06:43:47.823Z,83.07
2022-09-10T06:49:06.202Z,82.37
2022-09-10T06:54:10.427Z,80.88
2022-09-10T06:59:14.735Z,80.47
2022-09-10T07:04:21.851Z,78.58
2022-09-10T07:09:24.162Z,76.11
2022-09-10T07:14:34.376Z,78.42
2022-09-10T07:19:39.816Z,75.42
2022-09-10T07:24:53.990Z,77.49
2022-09-10T07:30:04.941Z,75.75
2022-09-10T07:35:09.961Z,76.22
2022-09-10T07:40:13.612Z,70.50
2022-09-10T07:45:16.272Z,59.40
2022-09-10T07:50:19.345Z,69.50
2022-09-10T07:55:25.118Z,74.29
2022-09-10T08:00:28.114Z,74.98
2022-09-10T08:05:37.407Z,73.63
2022-09-10T08:10:39.182Z,72.98
2022-09-10T08:15:43.827Z,73.68
2022-09-10T08:20:46.036Z,74.19
2022-09-10T08:25:52.312Z,73.85
2022-09-10T08:31:01.949Z,70.76
2022-09-10T08:36:10.587Z,59.53
2022-09-10T08:41:21.912Z,47.67
2022-09-10T08:46:42.184Z,50.37
2022-09-10T08:51:56.876Z,63.94
2022-09-10T08:57:00.760Z,59.03
2022-09-10T09:02:37.903Z,61.66
2022-09-10T09:07:42.728Z,53.92
2022-09-10T09:13:08.559Z,52.96
2022-09-10T09:18:36.842Z,50.80
2022-09-10T09:24:13.482Z,54.27
2022-09-10T09:29:31.420Z,58.43
2022-09-10T09:34:41.769Z,59.65
2022-09-10T09:40:04.836Z,63.89
2022-09-10T09:45:28.481Z,52.42
2022-09-10T09:50:33.613Z,46.31
2022-09-10T09:55:43.166Z,43.16
2022-09-10T10:00:45.009Z,43.07
2022-09-10T10:05:48.244Z,45.44
2022-09-10T10:10:52.210Z,45.87
2022-09-10T10:15:54.236Z,50.39
2022-09-10T10:21:18.838Z,45.10
2022-09-10T10:26:24.445Z,45.97
2022-09-10T10:31:41.258Z,54.15
2022-09-10T10:37:04.339Z,55.86
2022-09-10T10:42:17.409Z,53.65
2022-09-10T10:47:25.474Z,42.91
2022-09-10T10:53:02.695Z,43.60
2022-09-10T10:58:20.351Z,52.82
2022-09-10T11:03:31.684Z,54.47
2022-09-10T11:08:42.616Z,59.21
2022-09-10T11:14:17.126Z,61.02
2022-09-10T11:19:31.312Z,58.59
2022-09-10T11:24:47.066Z,63.31
2022-09-10T11:30:02.917Z,66.11
2022-09-10T11:35:19.889Z,72.10
2022-09-10T11:40:31.189Z,77.05
2022-09-10T11:45:49.065Z,74.04
2022-09-10T11:51:28.107Z,70.52
2022-09-10T11:56:52.926Z,76.01
2022-09-10T12:02:20.777Z,73.35
2022-09-10T12:07:43.248Z,73.46
2022-09-10T12:12:49.843Z,76.73
2022-09-10T12:17:59.217Z,66.44
2022-09-10T12:23:01.431Z,65.64
2022-09-10T12:28:24.925Z,67.42
2022-09-10T12:33:35.029Z,69.80
2022-09-10T12:39:16.466Z,64.39
2022-09-10T12:44:44.805Z,60.64
2022-09-10T12:50:01.614Z,66.83
2022-09-10T12:55:49.168Z,68.91
2022-09-10T13:00:58.250Z,58.83
2022-09-10T13:06:04.347Z,55.43
2022-09-10T13:11:18.320Z,57.93
2022-09-10T13:16:41.460Z,59.95
2022-09-10T13:21:43.008Z,64.77
2022-09-10T13:26:50.571Z,61.59
2022-09-10T13:32:02.074Z,58.19
2022-09-10T13:37:20.784Z,58.40
2022-09-10T13:42:25.666Z,61.85
2022-09-10T13:47:36.537Z,66.34
2022-09-10T13:52:39.232Z,67.38
2022-09-10T13:57:44.780Z,66.69
2022-09-10T14:02:50.686Z,64.33
2022-09-10T14:07:55.988Z,64.09
2022-09-10T14:12:58.875Z,67.51
2022-09-10T14:18:01.117Z,68.22
2022-09-10T14:23:15.605Z,66.60
2022-09-10T14:28:17.241Z,67.50
2022-09-10T14:33:31.991Z,66.68
2022-09-10T14:38:39.501Z,67.63
2022-09-10T14:43:41.294Z,69.95
2022-09-10T14:49:07.985Z,71.05
2022-09-10T14:54:11.806Z,72.01
2022-09-10T14:59:32.499Z,72.36
2022-09-10T15:04:34.126Z,71.76
2022-09-10T15:09:35.866Z,72.03
2022-09-10T15:14:37.959Z,72.24
2022-09-10T15:19:39.571Z,73.46
2022-09-10T15:24:59.021Z,75.16
2022-09-10T15:30:03.156Z,75.34
2022-09-10T15:35:05.372Z,75.59
2022-09-10T15:40:07.950Z,77.00
2022-09-10T15:45:10.065Z,79.02
2022-09-10T15:50:12.700Z,81.15
2022-09-10T15:55:14.443Z,81.75
2022-09-10T16:00:17.451Z,80.03
2022-09-10T16:05:21.185Z,79.39
2022-09-10T16:10:23.288Z,73.85
2022-09-10T16:15:24.915Z,71.85
2022-09-10T16:20:26.639Z,72.07
2022-09-10T16:25:31.115Z,72.36
2022-09-10T16:30:32.694Z,71.46
2022-09-10T16:35:35.688Z,72.16
2022-09-10T16:40:37.354Z,73.76
2022-09-10T16:45:49.408Z,77.07
2022-09-10T16:50:51.183Z,79.93
2022-09-10T16:55:52.972Z,82.22
2022-09-10T17:00:54.849Z,83.64
2022-09-10T17:05:57.587Z,84.67
2022-09-10T17:10:59.236Z,85.55
2022-09-10T17:16:24.724Z,86.99
2022-09-10T17:21:28.395Z,89.76
2022-09-10T17:26:31.626Z,91.20
2022-09-10T17:31:34.163Z,92.88
2022-09-10T17:36:36.924Z,93.92
2022-09-10T17:41:39.700Z,94.77
2022-09-10T17:46:42.838Z,96.86
2022-09-10T17:51:44.778Z,98.28
2022-09-10T17:56:46.489Z,99.58
2022-09-10T18:01:48.281Z,100.00
2022-09-10T18:06:52.399Z,100.00
2022-09-10T18:11:56.455Z,100.00
2022-09-10T18:16:58.839Z,100.00
2022-09-10T18:22:01.488Z,100.00
2022-09-10T18:27:05.331Z,100.00
2022-09-10T18:32:08.596Z,100.00
2022-09-10T18:37:10.190Z,100.00
2022-09-10T18:42:12.849Z,100.00
2022-09-10T18:47:34.156Z,100.00
2022-09-10T18:52:36.057Z,100.00
2022-09-10T18:57:37.877Z,100.00
2022-09-10T19:02:39.879Z,100.00
2022-09-10T19:07:41.557Z,100.00
2022-09-10T19:12:43.312Z,100.00
2022-09-10T19:17:44.917Z,100.00
2022-09-10T19:22:46.772Z,100.00
2022-09-10T19:27:48.385Z,100.00
2022-09-10T19:32:50.147Z,100.00
2022-09-10T19:37:51.728Z,100.00
2022-09-10T19:42:53.996Z,100.00
2022-09-10T19:47:55.944Z,100.00
2022-09-10T19:52:57.585Z,100.00
2022-09-10T19:58:00.075Z,100.00
2022-09-10T20:03:01.698Z,100.00
2022-09-10T20:08:04.816Z,100.00
2022-09-10T20:13:08.068Z,100.00
2022-09-10T20:18:09.649Z,100.00
2022-09-10T20:23:11.328Z,100.00
2022-09-10T20:28:14.360Z,100.00
2022-09-10T20:33:16.659Z,100.00
2022-09-10T20:38:18.279Z,100.00
2022-09-10T20:43:20.134Z,100.00
2022-09-10T20:48:21.752Z,100.00
2022-09-10T20:53:23.560Z,100.00
2022-09-10T20:58:25.142Z,100.00
2022-09-10T21:03:30.280Z,100.00
2022-09-10T21:08:31.918Z,100.00
2022-09-10T21:13:34.263Z,100.00
2022-09-10T21:18:36.958Z,100.00
2022-09-10T21:23:43.788Z,100.00
2022-09-10T21:28:45.408Z,100.00
2022-09-10T21:33:47.120Z,100.00
2022-09-10T21:38:56.564Z,100.00
2022-09-10T21:44:00.172Z,100.00
2022-09-10T21:49:03.452Z,100.00
2022-09-10T21:54:05.627Z,100.00
2022-09-10T21:59:07.773Z,99.01
2022-09-10T22:04:11.269Z,100.00
2022-09-10T22:09:15.600Z,100.00
2022-09-10T22:14:22.646Z,100.00
2022-09-10T22:19:25.909Z,100.00
2022-09-10T22:24:27.554Z,100.00
2022-09-10T22:29:29.299Z,100.00
2022-09-10T22:34:30.888Z,100.00
2022-09-10T22:39:32.517Z,100.00
2022-09-10T22:44:34.139Z,100.00
2022-09-10T22:49:37.236Z,100.00
2022-09-10T22:54:38.876Z,100.00
2022-09-10T22:59:40.456Z,100.00
2022-09-10T23:04:42.847Z,100.00
2022-09-10T23:09:44.483Z,100.00
2022-09-10T23:14:46.120Z,100.00
2022-09-10T23:19:47.722Z,100.00
2022-09-10T23:24:49.349Z,100.00
2022-09-10T23:29:50.959Z,100.00
2022-09-10T23:34:53.377Z,100.00
2022-09-10T23:39:55.024Z,100.00
2022-09-10T23:44:57.264Z,100.00
2022-09-10T23:49:58.925Z,100.00
2022-09-10T23:55:00.520Z,100.00
